createdAt,value
2022-09-28T00:01:45.779Z,6.90
2022-09-28T00:05:42.847Z,6.90
2022-09-28T00:09:39.765Z,6.90
2022-09-28T00:13:36.774Z,6.90
2022-09-28T00:17:34.127Z,6.80
2022-09-28T00:21:35.743Z,6.90
2022-09-28T00:25:33.237Z,6.80
2022-09-28T00:29:32.515Z,6.70
2022-09-28T00:33:29.457Z,6.60
2022-09-28T00:37:26.709Z,6.50
2022-09-28T00:41:27.199Z,6.50
2022-09-28T00:45:26.955Z,6.50
2022-09-28T00:49:41.968Z,6.50
2022-09-28T00:53:44.101Z,6.50
2022-09-28T00:57:49.016Z,6.50
2022-09-28T01:01:46.033Z,6.40
2022-09-28T01:05:47.055Z,6.40
2022-09-28T01:09:46.162Z,6.30
2022-09-28T01:13:44.835Z,6.30
2022-09-28T01:18:33.309Z,6.30
2022-09-28T01:23:19.384Z,6.30
2022-09-28T01:27:36.431Z,6.30
2022-09-28T01:31:36.532Z,6.30
2022-09-28T01:35:57.554Z,6.20
2022-09-28T01:39:57.765Z,6.20
2022-09-28T01:43:59.610Z,6.30
2022-09-28T01:48:05.815Z,6.30
2022-09-28T01:52:36.212Z,6.30
2022-09-28T01:56:55.869Z,6.40
2022-09-28T02:01:05.309Z,6.40
2022-09-28T02:05:18.574Z,6.50
2022-09-28T02:09:33.014Z,6.40
2022-09-28T02:13:38.821Z,6.40
2022-09-28T02:17:35.836Z,6.40
2022-09-28T02:21:58.276Z,6.40
2022-09-28T02:26:12.155Z,6.40
2022-09-28T02:30:10.368Z,6.40
2022-09-28T02:34:09.427Z,6.40
2022-09-28T02:38:06.438Z,6.40
2022-09-28T02:42:21.636Z,6.50
2022-09-28T02:46:30.102Z,6.50
2022-09-28T02:51:00.863Z,6.50
2022-09-28T02:55:15.778Z,6.40
2022-09-28T02:59:35.317Z,6.40
2022-09-28T03:03:55.052Z,6.40
2022-09-28T03:08:10.575Z,6.40
2022-09-28T03:12:16.534Z,6.30
2022-09-28T03:16:18.269Z,6.30
2022-09-28T03:20:18.210Z,6.40
2022-09-28T03:24:15.262Z,6.40
2022-09-28T03:28:12.243Z,6.40
2022-09-28T03:32:10.995Z,6.30
2022-09-28T03:36:09.609Z,6.30
2022-09-28T03:40:08.060Z,6.30
2022-09-28T03:44:05.141Z,6.40
2022-09-28T03:48:03.245Z,6.30
2022-09-28T03:52:00.725Z,6.30
2022-09-28T03:56:13.551Z,6.30
2022-09-28T04:00:12.888Z,6.30
2022-09-28T04:04:13.545Z,6.40
2022-09-28T04:08:10.557Z,6.40
2022-09-28T04:12:07.583Z,6.40
2022-09-28T04:16:05.519Z,6.40
2022-09-28T04:20:05.009Z,6.40
2022-09-28T04:24:11.553Z,6.50
2022-09-28T04:28:28.055Z,6.50
2022-09-28T04:32:25.886Z,6.40
2022-09-28T04:36:25.124Z,6.50
2022-09-28T04:40:22.296Z,6.50
2022-09-28T04:44:19.853Z,6.50
2022-09-28T04:48:17.992Z,6.50
2022-09-28T04:52:37.786Z,6.50
2022-09-28T04:56:34.810Z,6.50
2022-09-28T05:00:35.259Z,6.50
2022-09-28T05:04:56.574Z,6.50
2022-09-28T05:09:16.815Z,6.50
2022-09-28T05:13:14.512Z,6.60
2022-09-28T05:17:11.604Z,6.60
2022-09-28T05:21:28.078Z,6.60
2022-09-28T05:25:25.461Z,6.60
2022-09-28T05:29:37.154Z,6.60
2022-09-28T05:33:53.641Z,6.60
2022-09-28T05:37:51.093Z,6.70
2022-09-28T05:41:48.278Z,6.70
2022-09-28T05:45:45.666Z,6.80
2022-09-28T05:49:42.752Z,6.80
2022-09-28T05:53:41.542Z,6.90
2022-09-28T05:57:39.064Z,6.90
2022-09-28T06:01:37.127Z,6.90
2022-09-28T06:05:39.615Z,6.90
2022-09-28T06:09:36.689Z,6.90
2022-09-28T06:14:02.847Z,7.00
2022-09-28T06:18:05.334Z,7.10
2022-09-28T06:22:08.314Z,7.10
2022-09-28T06:26:13.682Z,7.10
2022-09-28T06:30:11.325Z,7.20
2022-09-28T06:34:11.685Z,7.10
2022-09-28T06:38:09.414Z,7.20
2022-09-28T06:42:07.387Z,7.20
2022-09-28T06:46:33.811Z,7.30
2022-09-28T06:50:50.879Z,7.30
2022-09-28T06:54:56.589Z,7.30
2022-09-28T06:59:00.358Z,7.30
2022-09-28T07:02:58.500Z,7.40
2022-09-28T07:07:26.115Z,7.50
2022-09-28T07:11:46.737Z,7.70
2022-09-28T07:16:02.101Z,7.90
2022-09-28T07:20:07.123Z,8.10
2022-09-28T07:24:09.344Z,8.10
2022-09-28T07:28:25.463Z,8.10
2022-09-28T07:32:52.204Z,8.20
2022-09-28T07:36:58.972Z,8.30
2022-09-28T07:41:12.233Z,8.30
2022-09-28T07:45:24.586Z,8.50
2022-09-28T07:49:23.031Z,8.80
2022-09-28T07:53:43.939Z,9.00
2022-09-28T07:58:01.197Z,9.10
2022-09-28T08:02:26.914Z,9.20
2022-09-28T08:06:24.150Z,9.30
2022-09-28T08:10:21.149Z,9.40
2022-09-28T08:14:47.701Z,9.50
2022-09-28T08:19:03.145Z,9.60
2022-09-28T08:23:09.310Z,9.50
2022-09-28T08:27:08.757Z,9.40
2022-09-28T08:31:07.421Z,9.30
2022-09-28T08:35:26.259Z,9.30
2022-09-28T08:39:40.581Z,9.60
2022-09-28T08:44:25.770Z,9.40
2022-09-28T08:49:20.734Z,9.70
2022-09-28T08:54:06.994Z,10.70
2022-09-28T08:58:32.985Z,10.90
2022-09-28T09:02:34.788Z,10.80
2022-09-28T09:07:18.430Z,10.70
2022-09-28T09:11:44.454Z,10.50
2022-09-28T09:16:06.173Z,10.70
2022-09-28T09:21:06.724Z,11.00
2022-09-28T09:25:19.371Z,10.90
2022-09-28T09:29:20.842Z,11.00
2022-09-28T09:33:40.281Z,11.40
2022-09-28T09:38:41.471Z,12.40
2022-09-28T09:43:08.413Z,12.80
2022-09-28T09:47:21.055Z,12.40
2022-09-28T09:52:01.008Z,12.40
2022-09-28T09:56:12.737Z,12.20
2022-09-28T10:00:48.062Z,11.70
2022-09-28T10:05:06.872Z,12.30
2022-09-28T10:09:13.792Z,12.60
2022-09-28T10:13:11.458Z,12.40
2022-09-28T10:17:16.437Z,12.70
2022-09-28T10:21:37.609Z,12.90
2022-09-28T10:26:26.036Z,13.40
2022-09-28T10:30:25.712Z,13.80
2022-09-28T10:34:29.263Z,14.10
2022-09-28T10:38:31.061Z,14.00
2022-09-28T10:42:37.041Z,13.80
2022-09-28T10:46:38.998Z,13.60
2022-09-28T10:50:42.479Z,13.20
2022-09-28T10:54:53.773Z,13.90
2022-09-28T10:58:52.378Z,14.40
2022-09-28T11:03:25.225Z,14.00
2022-09-28T11:07:30.773Z,12.90
2022-09-28T11:11:29.729Z,12.60
2022-09-28T11:15:33.947Z,12.10
2022-09-28T11:19:35.771Z,11.60
2022-09-28T11:23:32.784Z,11.30
2022-09-28T11:27:41.698Z,11.60
2022-09-28T11:31:39.850Z,11.70
2022-09-28T11:35:50.587Z,12.70
2022-09-28T11:40:43.671Z,14.70
2022-09-28T11:44:49.455Z,16.40
2022-09-28T11:48:56.710Z,18.60
2022-09-28T11:53:18.171Z,19.60
2022-09-28T11:57:25.235Z,20.00
2022-09-28T12:01:40.770Z,19.90
2022-09-28T12:05:49.935Z,18.30
2022-09-28T12:10:08.302Z,16.60
2022-09-28T12:14:18.632Z,16.30
2022-09-28T12:18:26.988Z,16.50
2022-09-28T12:22:43.102Z,17.50
2022-09-28T12:26:55.088Z,17.80
2022-09-28T12:30:54.750Z,17.70
2022-09-28T12:34:51.778Z,15.90
2022-09-28T12:39:19.150Z,14.40
2022-09-28T12:43:25.298Z,13.40
2022-09-28T12:48:08.219Z,13.70
2022-09-28T12:52:31.994Z,15.10
2022-09-28T12:57:29.980Z,15.30
2022-09-28T13:01:45.458Z,14.60
2022-09-28T13:06:21.121Z,14.60
2022-09-28T13:10:36.178Z,14.40
2022-09-28T13:15:23.621Z,14.20
2022-09-28T13:19:50.231Z,13.90
2022-09-28T13:23:51.472Z,13.80
2022-09-28T13:28:01.660Z,14.10
2022-09-28T13:32:03.443Z,15.00
2022-09-28T13:36:00.653Z,15.40
2022-09-28T13:39:59.750Z,15.70
2022-09-28T13:44:11.646Z,15.90
2022-09-28T13:48:20.668Z,15.40
2022-09-28T13:52:29.538Z,14.50
2022-09-28T13:56:57.436Z,14.00
2022-09-28T14:01:21.645Z,13.50
2022-09-28T14:05:21.746Z,13.30
2022-09-28T14:09:43.987Z,13.50
2022-09-28T14:13:43.976Z,14.00
2022-09-28T14:17:43.858Z,14.20
2022-09-28T14:21:59.507Z,14.60
2022-09-28T14:26:11.680Z,14.60
2022-09-28T14:30:11.593Z,14.50
2022-09-28T14:34:32.442Z,14.20
2022-09-28T14:38:55.412Z,13.90
2022-09-28T14:43:24.378Z,13.50
2022-09-28T14:47:35.423Z,13.20
2022-09-28T14:51:35.546Z,13.10
2022-09-28T14:55:45.837Z,13.10
2022-09-28T14:59:46.315Z,13.00
2022-09-28T15:03:48.784Z,13.10
2022-09-28T15:07:51.947Z,13.10
2022-09-28T15:11:49.024Z,13.00
2022-09-28T15:15:52.126Z,12.70
2022-09-28T15:19:58.364Z,12.50
2022-09-28T15:23:55.315Z,12.40
2022-09-28T15:28:06.599Z,12.20
2022-09-28T15:32:04.156Z,12.10
2022-09-28T15:36:08.343Z,12.00
2022-09-28T15:40:17.652Z,12.00
2022-09-28T15:44:30.063Z,12.00
2022-09-28T15:48:45.881Z,11.90
2022-09-28T15:53:02.595Z,11.90
2022-09-28T15:57:02.882Z,11.70
2022-09-28T16:01:36.733Z,11.60
2022-09-28T16:05:57.325Z,11.60
2022-09-28T16:10:05.277Z,11.50
2022-09-28T16:14:24.221Z,11.50
2022-09-28T16:18:23.620Z,11.40
2022-09-28T16:22:26.748Z,11.30
2022-09-28T16:26:33.623Z,11.30
2022-09-28T16:30:34.712Z,11.20
2022-09-28T16:34:31.683Z,11.20
2022-09-28T16:38:28.912Z,11.00
2022-09-28T16:42:28.384Z,11.00
2022-09-28T16:46:37.619Z,10.70
2022-09-28T16:50:34.754Z,10.60
2022-09-28T16:54:50.135Z,10.50
2022-09-28T16:58:49.288Z,10.30
2022-09-28T17:02:50.905Z,10.00
2022-09-28T17:06:47.991Z,9.90
2022-09-28T17:11:24.209Z,9.70
2022-09-28T17:15:21.918Z,9.50
2022-09-28T17:19:23.884Z,9.40
2022-09-28T17:23:21.387Z,9.30
2022-09-28T17:27:21.071Z,9.20
2022-09-28T17:31:18.123Z,9.20
2022-09-28T17:35:25.910Z,9.10
2022-09-28T17:39:25.096Z,9.10
2022-09-28T17:43:22.491Z,9.20
2022-09-28T17:47:19.484Z,9.30
2022-09-28T17:51:19.067Z,9.20
2022-09-28T17:55:16.045Z,9.20
2022-09-28T17:59:17.466Z,9.10
2022-09-28T18:03:21.615Z,8.90
2022-09-28T18:07:18.880Z,8.80
2022-09-28T18:11:17.440Z,8.80
2022-09-28T18:15:15.362Z,8.70
2022-09-28T18:19:12.564Z,8.60
2022-09-28T18:23:09.577Z,8.40
2022-09-28T18:27:06.570Z,8.30
2022-09-28T18:31:13.513Z,8.20
2022-09-28T18:35:11.255Z,8.00
2022-09-28T18:39:08.327Z,7.80
2022-09-28T18:43:05.300Z,7.70
2022-09-28T18:47:02.509Z,7.60
2022-09-28T18:50:59.484Z,7.60
2022-09-28T18:54:56.607Z,7.60
2022-09-28T18:58:53.628Z,7.60
2022-09-28T19:02:50.843Z,7.50
2022-09-28T19:06:51.888Z,7.40
2022-09-28T19:10:49.259Z,7.20
2022-09-28T19:14:46.468Z,7.10
2022-09-28T19:18:44.056Z,7.00
2022-09-28T19:22:41.157Z,6.90
2022-09-28T19:26:38.155Z,6.90
2022-09-28T19:30:35.274Z,6.90
2022-09-28T19:34:32.297Z,7.00
2022-09-28T19:38:32.389Z,7.00
2022-09-28T19:42:29.364Z,6.90
2022-09-28T19:46:27.059Z,6.90
2022-09-28T19:50:24.423Z,6.70
2022-09-28T19:54:22.325Z,6.60
2022-09-28T19:58:23.375Z,6.50
2022-09-28T20:02:21.311Z,6.40
2022-09-28T20:06:18.298Z,6.40
2022-09-28T20:10:15.412Z,6.30
2022-09-28T20:14:18.543Z,6.20
2022-09-28T20:18:16.472Z,6.20
2022-09-28T20:22:13.462Z,6.20
2022-09-28T20:26:11.820Z,6.20
2022-09-28T20:30:09.907Z,6.10
2022-09-28T20:34:07.868Z,6.10
2022-09-28T20:38:09.110Z,6.00
2022-09-28T20:42:06.587Z,5.90
2022-09-28T20:46:07.011Z,5.80
2022-09-28T20:50:06.698Z,5.70
2022-09-28T20:54:03.729Z,5.70
2022-09-28T20:58:04.811Z,5.60
2022-09-28T21:02:01.926Z,5.60
2022-09-28T21:05:59.141Z,5.60
2022-09-28T21:09:56.113Z,5.50
2022-09-28T21:14:00.624Z,5.50
2022-09-28T21:17:57.593Z,5.50
2022-09-28T21:21:54.721Z,5.50
2022-09-28T21:26:24.649Z,5.50
2022-09-28T21:30:21.688Z,5.50
2022-09-28T21:34:21.121Z,5.50
2022-09-28T21:38:18.184Z,5.50
2022-09-28T21:42:15.185Z,5.50
2022-09-28T21:46:12.243Z,5.40
2022-09-28T21:50:09.633Z,5.30
2022-09-28T21:54:06.946Z,5.20
2022-09-28T21:58:03.898Z,5.20
2022-09-28T22:02:00.887Z,5.10
2022-09-28T22:05:58.711Z,5.10
2022-09-28T22:09:55.662Z,5.10
2022-09-28T22:13:56.170Z,5.00
2022-09-28T22:17:53.158Z,4.90
2022-09-28T22:21:50.127Z,5.00
2022-09-28T22:25:47.109Z,4.90
2022-09-28T22:29:44.558Z,4.90
2022-09-28T22:33:41.612Z,4.80
2022-09-28T22:37:38.639Z,4.70
2022-09-28T22:41:35.668Z,4.70
2022-09-28T22:45:32.633Z,4.60
2022-09-28T22:49:29.583Z,4.60
2022-09-28T22:53:28.524Z,4.60
2022-09-28T22:57:25.528Z,4.50
2022-09-28T23:01:26.422Z,4.40
2022-09-28T23:05:25.760Z,4.40
2022-09-28T23:09:22.730Z,4.30
2022-09-28T23:13:19.956Z,4.30
2022-09-28T23:17:16.955Z,4.30
2022-09-28T23:21:17.721Z,4.30
2022-09-28T23:25:17.828Z,4.20
2022-09-28T23:29:14.916Z,4.10
2022-09-28T23:33:20.163Z,4.10
2022-09-28T23:37:17.136Z,4.10
2022-09-28T23:41:14.199Z,4.10
2022-09-28T23:45:11.596Z,4.10
2022-09-28T23:49:08.572Z,4.00
2022-09-28T23:53:05.764Z,3.90
2022-09-28T23:57:02.775Z,3.90
